Time;durP1;ratioP1;P1;durP2;ratioP2;P2;SDS_P1;SDS_P2;PMS_P1;PMS_P2;Temp;Humidity;BMP_temperature;BMP_pressure;BME280_temperature;BME280_humidity;BME280_pressure;Samples;Min_cycle;Max_cycle;Signal;HPM_P1;HPM_P2
2023/04/24 00:01:00;;;;;;;;;;;10.50;99.90;;;;;;5093459;28;19912;-74
2023/04/24 00:03:27;;;;;;;;;;;10.50;99.90;;;;;;5093440;28;19912;-73
2023/04/24 00:05:54;;;;;;;;;;;10.40;99.90;;;;;;5074960;28;19936;-72
2023/04/24 00:08:19;;;;;;;;;;;10.40;99.90;;;;;;5093728;28;20265;-73
2023/04/24 00:10:45;;;;;;;;;;;10.40;99.90;;;;;;5093432;28;19938;-73
2023/04/24 00:13:10;;;;;;;;;;;10.40;99.90;;;;;;5093528;28;19909;-71
2023/04/24 00:15:36;;;;;;;;;;;10.30;99.90;;;;;;5093174;28;19958;-71
2023/04/24 00:18:02;;;;;;;;;;;10.40;99.90;;;;;;5093117;28;20410;-73
2023/04/24 00:20:29;;;;;;;;;;;10.50;99.90;;;;;;5093023;28;19912;-73
2023/04/24 00:22:55;;;;;;;;;;;10.50;99.90;;;;;;5093328;28;19916;-72
2023/04/24 00:25:20;;;;;;;;;;;10.40;99.90;;;;;;5074916;28;19908;-71
2023/04/24 00:27:46;;;;;;;;;;;10.50;99.90;;;;;;5093254;28;19916;-74
2023/04/24 00:30:11;;;;;;;;;;;10.60;99.90;;;;;;5091781;28;19916;-74
2023/04/24 00:32:37;;;;;;;;;;;10.60;99.90;;;;;;5092960;28;19915;-72
2023/04/24 00:35:03;;;;;;;;;;;10.60;99.90;;;;;;5092891;28;19912;-72
2023/04/24 00:37:28;;;;;;;;;;;10.70;99.90;;;;;;5093137;28;20326;-71
2023/04/24 00:39:54;;;;;;;;;;;10.60;99.90;;;;;;5092843;28;19919;-71
2023/04/24 00:42:20;;;;;;;;;;;10.50;99.90;;;;;;5020492;28;2043762;-72
2023/04/24 00:44:45;;;;;;;;;;;10.50;99.90;;;;;;5075504;28;19916;-71
2023/04/24 00:47:11;;;;;;;;;;;10.50;99.90;;;;;;5094072;28;20325;-73
2023/04/24 00:49:37;;;;;;;;;;;10.40;99.90;;;;;;5093933;28;19908;-72
2023/04/24 00:52:07;;;;;;;;;;;10.40;99.90;;;;;;5093721;28;19909;-74
2023/04/24 00:54:33;;;;;;;;;;;10.40;99.90;;;;;;5093710;28;20276;-73
2023/04/24 00:56:58;;;;;;;;;;;10.30;99.90;;;;;;5093593;28;19908;-72
2023/04/24 00:59:24;;;;;;;;;;;10.30;99.90;;;;;;5093351;28;20367;-72
2023/04/24 01:01:50;;;;;;;;;;;10.30;99.90;;;;;;5075546;28;19908;-72
2023/04/24 01:04:17;;;;;;;;;;;10.30;99.90;;;;;;5093496;28;20003;-72
2023/04/24 01:06:44;;;;;;;;;;;10.20;99.90;;;;;;5093451;28;19908;-72
2023/04/24 01:09:10;;;;;;;;;;;10.20;99.90;;;;;;5093375;28;19912;-72
2023/04/24 01:11:36;;;;;;;;;;;10.20;99.90;;;;;;5093355;28;19912;-72
2023/04/24 01:14:02;;;;;;;;;;;10.30;99.90;;;;;;5093392;28;19908;-71
2023/04/24 01:16:27;;;;;;;;;;;10.20;99.90;;;;;;5093542;28;19958;-73
2023/04/24 01:18:53;;;;;;;;;;;10.20;99.90;;;;;;5075225;28;19954;-72
2023/04/24 01:21:21;;;;;;;;;;;10.10;99.90;;;;;;5075144;28;20322;-72
2023/04/24 01:23:46;;;;;;;;;;;10.00;99.90;;;;;;5093386;28;19908;-72
2023/04/24 01:26:13;;;;;;;;;;;10.00;99.90;;;;;;5093394;28;19953;-71
2023/04/24 01:28:38;;;;;;;;;;;10.10;99.90;;;;;;5093358;28;19908;-71
2023/04/24 01:31:04;;;;;;;;;;;10.00;99.90;;;;;;5093234;28;20054;-71
2023/04/24 01:33:30;;;;;;;;;;;10.00;99.90;;;;;;5093221;28;19912;-74
2023/04/24 01:35:55;;;;;;;;;;;9.90;99.90;;;;;;5093414;28;19916;-72
2023/04/24 01:38:21;;;;;;;;;;;9.80;99.90;;;;;;5093127;28;19908;-74
2023/04/24 01:40:47;;;;;;;;;;;9.80;99.90;;;;;;5093808;28;19912;-72
2023/04/24 01:43:12;;;;;;;;;;;9.80;99.90;;;;;;5097072;28;19945;-73
2023/04/24 01:45:38;;;;;;;;;;;9.80;99.90;;;;;;5078568;28;19912;-73
2023/04/24 01:48:04;;;;;;;;;;;9.80;99.90;;;;;;5096714;28;19915;-71
2023/04/24 01:50:30;;;;;;;;;;;9.80;99.90;;;;;;5096598;28;20003;-71
2023/04/24 01:52:56;;;;;;;;;;;9.80;99.90;;;;;;5096593;28;19916;-72
2023/04/24 01:55:21;;;;;;;;;;;9.80;99.90;;;;;;5096571;28;19909;-72
2023/04/24 01:57:47;;;;;;;;;;;9.80;99.90;;;;;;5096464;28;19974;-72
2023/04/24 02:00:13;;;;;;;;;;;9.70;99.90;;;;;;5096409;28;19912;-73
2023/04/24 02:02:41;;;;;;;;;;;9.70;99.90;;;;;;5096411;28;19915;-72
2023/04/24 02:05:07;;;;;;;;;;;9.60;99.90;;;;;;5096557;28;19908;-72
2023/04/24 02:07:33;;;;;;;;;;;9.70;99.90;;;;;;5096414;28;19908;-71
2023/04/24 02:09:59;;;;;;;;;;;9.70;99.90;;;;;;5078073;28;19908;-72
2023/04/24 02:12:24;;;;;;;;;;;9.80;99.90;;;;;;5096194;28;19909;-71
2023/04/24 02:14:50;;;;;;;;;;;9.70;99.90;;;;;;5096621;28;19909;-72
2023/04/24 02:17:16;;;;;;;;;;;9.70;99.90;;;;;;5096654;28;19919;-74
2023/04/24 02:19:42;;;;;;;;;;;9.60;99.90;;;;;;5096004;28;19919;-73
2023/04/24 02:22:07;;;;;;;;;;;9.60;99.90;;;;;;5096063;28;19931;-73
2023/04/24 02:24:33;;;;;;;;;;;9.50;99.90;;;;;;5077823;28;20391;-72
2023/04/24 02:26:58;;;;;;;;;;;9.50;99.90;;;;;;5096278;28;19952;-74
2023/04/24 02:29:24;;;;;;;;;;;9.50;99.90;;;;;;5095826;28;20401;-72
2023/04/24 02:31:49;;;;;;;;;;;9.50;99.90;;;;;;5095934;28;19909;-72
2023/04/24 02:34:16;;;;;;;;;;;9.50;99.90;;;;;;5095779;28;19919;-73
2023/04/24 02:36:41;;;;;;;;;;;9.50;99.90;;;;;;5095721;28;19917;-73
2023/04/24 02:39:07;;;;;;;;;;;9.50;99.90;;;;;;5095860;28;19912;-73
2023/04/24 02:41:32;;;;;;;;;;;9.50;99.90;;;;;;5077103;28;20025;-72
2023/04/24 02:43:58;;;;;;;;;;;9.50;99.90;;;;;;5095987;28;19916;-72
2023/04/24 02:46:24;;;;;;;;;;;9.60;99.90;;;;;;5095473;28;19945;-72
2023/04/24 02:48:50;;;;;;;;;;;9.60;99.90;;;;;;5077302;28;20283;-72
2023/04/24 02:51:15;;;;;;;;;;;9.60;99.90;;;;;;5077221;28;20379;-71
2023/04/24 02:53:41;;;;;;;;;;;9.60;99.90;;;;;;5094637;28;19914;-73
2023/04/24 02:56:06;;;;;;;;;;;9.60;99.90;;;;;;5095314;28;19957;-71
2023/04/24 02:58:32;;;;;;;;;;;9.60;99.90;;;;;;5095456;28;19930;-72
2023/04/24 03:00:57;;;;;;;;;;;9.60;99.90;;;;;;5076990;28;19946;-73
2023/04/24 03:03:23;;;;;;;;;;;9.60;99.90;;;;;;5095209;28;19908;-72
2023/04/24 03:05:50;;;;;;;;;;;9.50;99.90;;;;;;5094989;28;20276;-71
2023/04/24 03:08:15;;;;;;;;;;;9.50;99.90;;;;;;5095131;28;19912;-72
2023/04/24 03:10:41;;;;;;;;;;;9.50;99.90;;;;;;5094914;28;19915;-72
2023/04/24 03:13:06;;;;;;;;;;;9.50;99.90;;;;;;5095026;28;20280;-72
2023/04/24 03:15:32;;;;;;;;;;;9.50;99.90;;;;;;5095346;28;20037;-71
2023/04/24 03:17:58;;;;;;;;;;;9.50;99.90;;;;;;5095193;28;19908;-72
2023/04/24 03:20:23;;;;;;;;;;;9.50;99.90;;;;;;5095002;28;20275;-73
2023/04/24 03:22:49;;;;;;;;;;;9.50;99.90;;;;;;5094821;28;19908;-71
2023/04/24 03:25:15;;;;;;;;;;;9.60;99.90;;;;;;5095153;28;20072;-72
2023/04/24 03:27:41;;;;;;;;;;;9.50;99.90;;;;;;5094992;28;19912;-74
2023/04/24 03:30:07;;;;;;;;;;;9.60;99.90;;;;;;5094733;28;19908;-73
2023/04/24 03:32:33;;;;;;;;;;;9.60;99.90;;;;;;5094673;28;19954;-72
2023/04/24 03:34:58;;;;;;;;;;;9.60;99.90;;;;;;5095025;28;19911;-72
2023/04/24 03:37:24;;;;;;;;;;;9.60;99.90;;;;;;5094775;28;19915;-72
2023/04/24 03:39:50;;;;;;;;;;;9.60;99.90;;;;;;5094479;28;19912;-71
2023/04/24 03:42:15;;;;;;;;;;;9.70;99.90;;;;;;5094282;28;19924;-73
2023/04/24 03:44:41;;;;;;;;;;;9.70;99.90;;;;;;5094616;28;20275;-72
2023/04/24 03:47:06;;;;;;;;;;;9.70;99.90;;;;;;5094384;28;19908;-71
2023/04/24 03:49:32;;;;;;;;;;;9.80;99.90;;;;;;5094366;28;20287;-72
2023/04/24 03:51:57;;;;;;;;;;;9.70;99.90;;;;;;5094337;28;20001;-72
2023/04/24 03:54:23;;;;;;;;;;;9.70;99.90;;;;;;5094270;28;19923;-72
2023/04/24 03:56:48;;;;;;;;;;;9.80;99.90;;;;;;5094241;28;19908;-72
2023/04/24 03:59:14;;;;;;;;;;;9.80;99.90;;;;;;5094154;28;19908;-72
2023/04/24 04:01:40;;;;;;;;;;;9.80;99.90;;;;;;5094148;28;20270;-71
2023/04/24 04:04:05;;;;;;;;;;;9.90;99.90;;;;;;5093877;28;19962;-71
2023/04/24 04:06:31;;;;;;;;;;;9.70;99.90;;;;;;5094239;28;19908;-74
2023/04/24 04:08:57;;;;;;;;;;;9.70;99.90;;;;;;5094048;28;20003;-73
2023/04/24 04:11:23;;;;;;;;;;;9.60;99.90;;;;;;5094058;28;19953;-73
2023/04/24 04:13:48;;;;;;;;;;;9.60;99.90;;;;;;5093996;28;20047;-72
2023/04/24 04:16:16;;;;;;;;;;;9.60;99.90;;;;;;5075851;28;19909;-72
2023/04/24 04:18:42;;;;;;;;;;;9.50;99.90;;;;;;5093914;28;19956;-73
2023/04/24 04:21:07;;;;;;;;;;;9.50;99.90;;;;;;5075698;28;20016;-73
2023/04/24 04:23:33;;;;;;;;;;;9.50;99.90;;;;;;5075755;28;19908;-71
2023/04/24 04:25:59;;;;;;;;;;;9.50;99.90;;;;;;5075790;28;19916;-73
2023/04/24 04:28:25;;;;;;;;;;;9.60;99.90;;;;;;5093819;28;19916;-73
2023/04/24 04:30:54;;;;;;;;;;;9.50;99.90;;;;;;5093809;28;20009;-72
2023/04/24 04:33:20;;;;;;;;;;;9.50;99.90;;;;;;5093727;28;19908;-73
2023/04/24 04:35:48;;;;;;;;;;;9.40;99.90;;;;;;5093734;28;19998;-72
2023/04/24 04:38:14;;;;;;;;;;;9.40;99.90;;;;;;5075583;28;19908;-72
2023/04/24 04:40:40;;;;;;;;;;;9.40;99.90;;;;;;5093388;28;19915;-71
2023/04/24 04:43:06;;;;;;;;;;;9.40;99.90;;;;;;5093750;28;20345;-73
2023/04/24 04:45:32;;;;;;;;;;;9.40;99.90;;;;;;5093806;28;19908;-74
2023/04/24 04:48:00;;;;;;;;;;;9.40;99.90;;;;;;5093722;28;19908;-71
2023/04/24 04:50:26;;;;;;;;;;;9.30;99.90;;;;;;5093620;28;20440;-72
2023/04/24 04:52:52;;;;;;;;;;;9.30;99.90;;;;;;5075389;28;20416;-72
2023/04/24 04:55:19;;;;;;;;;;;9.20;99.90;;;;;;5093522;28;19996;-71
2023/04/24 04:57:45;;;;;;;;;;;9.20;99.90;;;;;;5093819;28;19908;-73
2023/04/24 05:00:11;;;;;;;;;;;9.20;99.90;;;;;;5093443;28;19912;-73
2023/04/24 05:02:37;;;;;;;;;;;9.10;99.90;;;;;;5075383;28;19916;-72
2023/04/24 05:05:02;;;;;;;;;;;9.00;99.90;;;;;;5093458;28;19912;-71
2023/04/24 05:07:28;;;;;;;;;;;8.90;99.90;;;;;;5093426;28;19916;-72
2023/04/24 05:09:53;;;;;;;;;;;8.90;99.90;;;;;;5093407;28;19909;-72
2023/04/24 05:12:19;;;;;;;;;;;8.80;99.90;;;;;;5093620;28;20370;-72
2023/04/24 05:14:44;;;;;;;;;;;8.80;99.90;;;;;;5093374;28;20067;-72
2023/04/24 05:17:11;;;;;;;;;;;8.80;99.90;;;;;;5096827;28;19908;-72
2023/04/24 05:19:38;;;;;;;;;;;8.70;99.90;;;;;;5097174;28;19916;-72
2023/04/24 05:22:06;;;;;;;;;;;8.80;99.90;;;;;;5097618;28;19908;-73
2023/04/24 05:24:32;;;;;;;;;;;;;;;;;;5097464;28;19915;-73
2023/04/24 05:26:58;;;;;;;;;;;8.70;99.90;;;;;;5097133;28;19908;-72
2023/04/24 05:29:25;;;;;;;;;;;8.70;99.90;;;;;;5097149;28;20420;-73
2023/04/24 05:31:50;;;;;;;;;;;8.70;99.90;;;;;;5097050;28;20375;-73
2023/04/24 05:34:16;;;;;;;;;;;8.80;99.90;;;;;;5097373;28;19909;-74
2023/04/24 05:36:42;;;;;;;;;;;8.70;99.90;;;;;;5078760;28;19934;-71
2023/04/24 05:39:08;;;;;;;;;;;8.60;99.90;;;;;;5096826;28;19912;-72
2023/04/24 05:41:34;;;;;;;;;;;8.70;99.90;;;;;;5096601;28;19920;-73
2023/04/24 05:43:59;;;;;;;;;;;8.70;99.90;;;;;;5078617;28;19908;-73
2023/04/24 05:46:25;;;;;;;;;;;8.70;99.90;;;;;;5096868;28;19927;-71
2023/04/24 05:48:50;;;;;;;;;;;8.70;99.90;;;;;;5096673;28;19961;-72
2023/04/24 05:51:16;;;;;;;;;;;8.70;99.90;;;;;;5078490;28;19908;-72
2023/04/24 05:53:42;;;;;;;;;;;8.70;99.90;;;;;;5096651;28;20261;-72
2023/04/24 05:56:07;;;;;;;;;;;8.70;99.90;;;;;;5096659;28;19912;-73
2023/04/24 05:58:33;;;;;;;;;;;8.80;99.90;;;;;;5096287;28;19948;-73
2023/04/24 06:01:00;;;;;;;;;;;8.70;99.90;;;;;;5096344;28;19912;-71
2023/04/24 06:03:27;;;;;;;;;;;8.90;99.90;;;;;;5096446;28;19912;-73
2023/04/24 06:05:52;;;;;;;;;;;9.00;99.90;;;;;;5096364;28;19908;-73
2023/04/24 06:08:18;;;;;;;;;;;9.00;99.90;;;;;;5096465;28;19929;-72
2023/04/24 06:10:44;;;;;;;;;;;9.00;99.90;;;;;;5096258;28;19999;-73
2023/04/24 06:13:11;;;;;;;;;;;9.00;99.90;;;;;;5096268;28;20398;-72
2023/04/24 06:15:36;;;;;;;;;;;9.20;99.90;;;;;;5096215;28;19912;-73
2023/04/24 06:18:02;;;;;;;;;;;9.40;99.90;;;;;;5096371;28;19915;-72
2023/04/24 06:20:28;;;;;;;;;;;9.60;99.90;;;;;;5096168;28;19912;-72
2023/04/24 06:22:53;;;;;;;;;;;9.40;99.90;;;;;;5095977;28;20387;-72
2023/04/24 06:25:19;;;;;;;;;;;9.50;99.90;;;;;;5095997;28;19908;-73
2023/04/24 06:27:45;;;;;;;;;;;10.00;99.90;;;;;;5095887;28;19912;-72
2023/04/24 06:30:10;;;;;;;;;;;10.40;99.90;;;;;;5077739;28;19908;-71
2023/04/24 06:32:36;;;;;;;;;;;10.60;99.90;;;;;;5095814;28;19908;-73
2023/04/24 06:35:02;;;;;;;;;;;10.70;99.90;;;;;;5077650;28;20333;-71
2023/04/24 06:37:27;;;;;;;;;;;10.90;99.90;;;;;;5095833;28;19915;-73
2023/04/24 06:39:53;;;;;;;;;;;10.90;99.90;;;;;;5095633;28;19912;-72
2023/04/24 06:42:20;;;;;;;;;;;11.20;99.90;;;;;;5095468;28;20399;-74
2023/04/24 06:44:46;;;;;;;;;;;11.80;99.90;;;;;;5095591;28;19919;-74
2023/04/24 06:47:13;;;;;;;;;;;11.80;99.90;;;;;;5095544;28;20296;-72
2023/04/24 06:49:39;;;;;;;;;;;12.40;99.90;;;;;;5077316;28;19908;-72
2023/04/24 06:52:05;;;;;;;;;;;12.90;99.90;;;;;;5095435;28;19908;-72
2023/04/24 06:54:31;;;;;;;;;;;13.20;99.90;;;;;;5095383;28;19912;-73
2023/04/24 06:56:57;;;;;;;;;;;13.00;99.90;;;;;;5095494;28;20287;-72
2023/04/24 06:59:26;;;;;;;;;;;12.80;99.90;;;;;;5095179;28;19908;-72
2023/04/24 07:01:51;;;;;;;;;;;12.50;99.90;;;;;;5095295;28;19912;-73
2023/04/24 07:04:17;;;;;;;;;;;12.50;99.90;;;;;;5095216;28;19915;-72
2023/04/24 07:06:43;;;;;;;;;;;12.80;99.90;;;;;;5095306;28;19908;-72
2023/04/24 07:09:09;;;;;;;;;;;13.00;99.90;;;;;;5095318;28;20364;-72
2023/04/24 07:11:36;;;;;;;;;;;12.80;99.90;;;;;;5095105;28;19933;-72
2023/04/24 07:14:02;;;;;;;;;;;13.10;99.90;;;;;;5076870;28;19908;-73
2023/04/24 07:16:28;;;;;;;;;;;13.10;99.90;;;;;;5094999;28;20303;-72
2023/04/24 07:18:53;;;;;;;;;;;13.50;99.90;;;;;;5094969;28;20486;-73
2023/04/24 07:21:19;;;;;;;;;;;13.90;99.90;;;;;;5094992;28;19912;-73
2023/04/24 07:23:44;;;;;;;;;;;13.90;99.90;;;;;;5094862;28;19914;-72
2023/04/24 07:26:10;;;;;;;;;;;13.90;99.90;;;;;;5095038;28;20249;-73
2023/04/24 07:28:36;;;;;;;;;;;14.10;99.90;;;;;;5095076;28;19920;-72
2023/04/24 07:31:01;;;;;;;;;;;14.20;99.90;;;;;;5094688;28;19908;-72
2023/04/24 07:33:27;;;;;;;;;;;14.00;99.90;;;;;;5094788;28;19919;-73
2023/04/24 07:35:53;;;;;;;;;;;14.20;99.90;;;;;;5094603;28;19908;-73
2023/04/24 07:38:22;;;;;;;;;;;14.20;99.90;;;;;;5075910;28;19931;-73
2023/04/24 07:40:47;;;;;;;;;;;14.50;99.90;;;;;;5094236;28;19912;-72
2023/04/24 07:43:13;;;;;;;;;;;14.90;99.90;;;;;;5094569;28;20026;-72
2023/04/24 07:45:39;;;;;;;;;;;14.70;99.90;;;;;;5094448;28;19912;-72
2023/04/24 07:48:05;;;;;;;;;;;15.00;99.90;;;;;;5094406;28;20363;-72
2023/04/24 07:50:30;;;;;;;;;;;15.50;99.90;;;;;;5094657;28;19908;-75
2023/04/24 07:52:56;;;;;;;;;;;15.50;99.90;;;;;;5094378;28;19962;-74
2023/04/24 07:55:22;;;;;;;;;;;15.40;99.90;;;;;;5094248;28;19908;-73
2023/04/24 07:57:48;;;;;;;;;;;16.10;99.90;;;;;;5094076;28;20284;-74
2023/04/24 08:00:13;;;;;;;;;;;17.50;99.90;;;;;;5094353;28;19962;-74
2023/04/24 08:02:39;;;;;;;;;;;18.50;99.90;;;;;;5094185;28;19916;-73
2023/04/24 08:05:05;;;;;;;;;;;18.10;99.90;;;;;;5094361;28;19914;-73
2023/04/24 08:07:31;;;;;;;;;;;18.50;99.90;;;;;;5094076;28;19994;-72
2023/04/24 08:09:57;;;;;;;;;;;18.90;99.90;;;;;;5094058;28;19908;-73
2023/04/24 08:12:22;;;;;;;;;;;19.20;99.90;;;;;;5094409;28;19909;-73
2023/04/24 08:14:48;;;;;;;;;;;18.70;99.90;;;;;;5094284;28;19909;-72
2023/04/24 08:17:13;;;;;;;;;;;19.20;99.90;;;;;;5093932;28;19908;-72
2023/04/24 08:19:42;;;;;;;;;;;18.20;99.90;;;;;;5093847;28;19915;-73
2023/04/24 08:22:08;;;;;;;;;;;18.80;99.90;;;;;;5093954;28;19908;-72
2023/04/24 08:24:34;;;;;;;;;;;20.10;99.90;;;;;;5094300;28;20359;-72
2023/04/24 08:27:01;;;;;;;;;;;20.80;99.90;;;;;;5075729;28;20360;-71
2023/04/24 08:29:26;;;;;;;;;;;21.30;99.90;;;;;;5094010;28;19908;-73
2023/04/24 08:31:54;;;;;;;;;;;22.80;99.90;;;;;;5075641;28;19909;-73
2023/04/24 08:34:20;;;;;;;;;;;23.50;99.90;;;;;;5093791;28;20398;-73
2023/04/24 08:36:45;;;;;;;;;;;23.20;99.90;;;;;;5094204;28;19912;-72
2023/04/24 08:39:11;;;;;;;;;;;23.50;99.90;;;;;;5093742;28;19955;-72
2023/04/24 08:41:37;;;;;;;;;;;22.10;99.90;;;;;;5093676;28;20402;-73
2023/04/24 08:44:03;;;;;;;;;;;22.80;99.90;;;;;;5093673;28;19915;-73
2023/04/24 08:46:30;;;;;;;;;;;23.00;99.90;;;;;;5093639;28;19912;-73
2023/04/24 08:48:55;;;;;;;;;;;22.40;99.90;;;;;;5093844;28;20396;-74
2023/04/24 08:51:22;;;;;;;;;;;22.40;99.90;;;;;;5077633;28;19909;-73
2023/04/24 08:53:48;;;;;;;;;;;23.20;99.90;;;;;;5097805;28;20402;-73
2023/04/24 08:56:13;;;;;;;;;;;22.00;99.90;;;;;;5097703;28;19943;-73
2023/04/24 08:58:39;;;;;;;;;;;20.60;99.90;;;;;;5079503;28;19914;-73
2023/04/24 09:01:05;;;;;;;;;;;22.20;99.90;;;;;;5097602;28;19956;-73
2023/04/24 09:03:31;;;;;;;;;;;23.00;99.90;;;;;;5079421;28;19970;-73
2023/04/24 09:05:57;;;;;;;;;;;22.30;99.90;;;;;;5097476;28;19908;-73
2023/04/24 09:08:24;;;;;;;;;;;22.90;99.90;;;;;;5097472;28;19916;-72
2023/04/24 09:10:49;;;;;;;;;;;23.50;99.90;;;;;;5097463;28;19912;-73
2023/04/24 09:13:15;;;;;;;;;;;22.00;99.90;;;;;;5097406;28;19919;-72
2023/04/24 09:15:41;;;;;;;;;;;20.50;99.90;;;;;;5097937;28;19915;-72
2023/04/24 09:18:06;;;;;;;;;;;23.20;99.90;;;;;;5097294;28;20364;-72
2023/04/24 09:20:32;;;;;;;;;;;23.40;99.90;;;;;;5097204;28;19912;-74
2023/04/24 09:22:58;;;;;;;;;;;21.50;99.90;;;;;;5097213;28;19987;-72
2023/04/24 09:25:33;;;;;;;;;;;19.50;99.90;;;;;;5097249;28;19946;-73
2023/04/24 09:28:03;;;;;;;;;;;18.10;99.90;;;;;;5078909;28;19908;-73
2023/04/24 09:30:29;;;;;;;;;;;17.80;99.90;;;;;;5097061;28;20394;-75
2023/04/24 09:33:13;;;;;;;;;;;18.70;99.90;;;;;;5097261;28;19908;-72
2023/04/24 09:35:43;;;;;;;;;;;19.50;99.90;;;;;;5078718;28;20295;-73
2023/04/24 09:38:09;;;;;;;;;;;20.40;99.90;;;;;;5096930;28;19914;-73
2023/04/24 09:40:35;;;;;;;;;;;20.80;99.90;;;;;;5096643;28;19912;-73
2023/04/24 09:43:02;;;;;;;;;;;21.60;99.90;;;;;;5078724;28;19974;-74
2023/04/24 09:45:28;;;;;;;;;;;22.00;99.90;;;;;;5096993;28;19990;-73
2023/04/24 09:47:55;;;;;;;;;;;21.60;99.90;;;;;;5096742;28;19908;-73
2023/04/24 09:50:21;;;;;;;;;;;21.00;99.90;;;;;;5096671;28;19909;-73
2023/04/24 09:52:57;;;;;;;;;;;20.10;99.90;;;;;;5096652;28;20416;-72
2023/04/24 09:55:22;;;;;;;;;;;18.60;99.90;;;;;;5096823;28;19954;-73
2023/04/24 09:57:49;;;;;;;;;;;18.10;99.90;;;;;;5078335;28;19908;-72
2023/04/24 10:00:18;;;;;;;;;;;17.60;99.90;;;;;;5096448;28;19912;-72
2023/04/24 10:02:44;;;;;;;;;;;16.90;99.90;;;;;;5077880;28;20360;-73
2023/04/24 10:05:11;;;;;;;;;;;16.90;99.90;;;;;;5096398;28;19915;-73
2023/04/24 10:07:37;;;;;;;;;;;16.40;99.90;;;;;;5096363;28;19961;-72
2023/04/24 10:10:03;;;;;;;;;;;16.60;99.90;;;;;;5096527;28;19957;-72
2023/04/24 10:12:29;;;;;;;;;;;16.80;99.90;;;;;;5096295;28;20368;-73
2023/04/24 10:14:55;;;;;;;;;;;20.50;99.90;;;;;;5096207;28;19958;-73
2023/04/24 10:17:21;;;;;;;;;;;27.30;99.90;;;;;;5096184;28;19914;-74
2023/04/24 10:19:47;;;;;;;;;;;32.00;99.90;;;;;;5096171;28;19908;-75
2023/04/24 10:22:15;;;;;;;;;;;33.50;99.90;;;;;;5096078;28;19912;-75
2023/04/24 10:24:41;;;;;;;;;;;32.60;99.90;;;;;;5095999;28;20372;-74
2023/04/24 10:27:07;;;;;;;;;;;27.80;99.90;;;;;;5077760;28;19916;-72
2023/04/24 10:29:35;;;;;;;;;;;22.80;99.90;;;;;;5095909;28;19915;-72
2023/04/24 10:32:01;;;;;;;;;;;19.20;99.90;;;;;;5096180;28;19962;-74
2023/04/24 10:34:27;;;;;;;;;;;18.60;99.90;;;;;;5095873;28;20257;-72
2023/04/24 10:36:54;;;;;;;;;;;18.00;99.90;;;;;;5095406;28;19908;-73
2023/04/24 10:39:20;;;;;;;;;;;17.70;99.90;;;;;;5077659;28;19912;-72
2023/04/24 10:41:48;;;;;;;;;;;17.20;99.90;;;;;;5095456;28;19931;-72
2023/04/24 10:44:14;;;;;;;;;;;;;;;;;;5095679;28;19994;-73
2023/04/24 10:46:45;;;;;;;;;;;17.00;99.90;;;;;;5095557;28;19947;-73
2023/04/24 10:49:10;;;;;;;;;;;17.20;99.90;;;;;;5095825;28;19908;-74
2023/04/24 10:51:46;;;;;;;;;;;16.90;99.90;;;;;;5095873;28;20390;-72
2023/04/24 10:54:25;;;;;;;;;;;16.80;99.90;;;;;;5095582;28;19908;-73
2023/04/24 10:56:51;;;;;;;;;;;16.70;99.90;;;;;;5095430;28;19908;-74
2023/04/24 10:59:26;;;;;;;;;;;18.30;99.90;;;;;;5095510;28;19995;-73
2023/04/24 11:01:55;;;;;;;;;;;20.90;99.90;;;;;;5095286;28;19961;-74
2023/04/24 11:04:39;;;;;;;;;;;24.90;99.90;;;;;;5095489;28;19915;-74
2023/04/24 11:07:05;;;;;;;;;;;28.00;99.90;;;;;;5095369;28;19915;-74
2023/04/24 11:09:31;;;;;;;;;;;28.80;99.90;;;;;;5095181;28;19908;-73
2023/04/24 11:12:07;;;;;;;;;;;30.60;99.90;;;;;;5095115;28;20379;-73
2023/04/24 11:14:52;;;;;;;;;;;32.10;99.90;;;;;;5094259;28;19909;-73
2023/04/24 11:17:30;;;;;;;;;;;31.20;99.90;;;;;;5095072;28;20291;-74
2023/04/24 11:20:00;;;;;;;;;;;33.30;99.90;;;;;;5094899;28;20248;-75
2023/04/24 11:22:28;;;;;;;;;;;34.50;99.90;;;;;;5095161;28;19912;-75
2023/04/24 11:24:53;;;;;;;;;;;33.50;99.90;;;;;;5094961;28;19957;-74
2023/04/24 11:27:20;;;;;;;;;;;27.40;99.90;;;;;;5094794;28;19912;-72
2023/04/24 11:29:59;;;;;;;;;;;23.50;99.90;;;;;;5094764;28;19913;-73
2023/04/24 11:32:24;;;;;;;;;;;21.60;99.90;;;;;;5094948;28;19916;-73
2023/04/24 11:34:51;;;;;;;;;;;20.20;99.90;;;;;;5094794;28;19908;-75
2023/04/24 11:37:17;;;;;;;;;;;19.60;99.90;;;;;;5094636;28;20283;-73
2023/04/24 11:39:43;;;;;;;;;;;21.70;99.90;;;;;;5094720;28;19995;-73
2023/04/24 11:42:09;;;;;;;;;;;21.70;99.90;;;;;;5094414;28;19920;-74
2023/04/24 11:44:36;;;;;;;;;;;22.30;99.90;;;;;;5094638;28;19912;-73
2023/04/24 11:47:06;;;;;;;;;;;22.50;99.90;;;;;;5094456;28;19912;-73
2023/04/24 11:49:32;;;;;;;;;;;22.90;99.90;;;;;;5094388;28;19915;-73
2023/04/24 11:51:59;;;;;;;;;;;22.40;99.90;;;;;;5094409;28;20304;-73
2023/04/24 11:54:25;;;;;;;;;;;22.20;99.90;;;;;;5094406;28;20388;-73
2023/04/24 11:56:51;;;;;;;;;;;21.80;99.90;;;;;;5094319;28;19908;-72
2023/04/24 11:59:16;;;;;;;;;;;21.40;99.90;;;;;;5076034;28;19919;-74
2023/04/24 12:01:42;;;;;;;;;;;24.90;99.90;;;;;;5094614;28;19912;-74
2023/04/24 12:04:08;;;;;;;;;;;24.30;99.90;;;;;;5094491;28;20406;-73
2023/04/24 12:06:33;;;;;;;;;;;23.20;99.90;;;;;;5094365;28;19954;-74
2023/04/24 12:08:59;;;;;;;;;;;21.80;99.90;;;;;;5094130;28;20389;-73
2023/04/24 12:11:25;;;;;;;;;;;20.30;99.90;;;;;;5075949;28;19973;-72
2023/04/24 12:13:51;;;;;;;;;;;19.60;99.90;;;;;;5094373;28;19916;-73
2023/04/24 12:16:16;;;;;;;;;;;19.10;99.90;;;;;;5094004;28;19908;-73
2023/04/24 12:18:43;;;;;;;;;;;18.50;99.90;;;;;;5093908;28;19908;-73
2023/04/24 12:21:17;;;;;;;;;;;18.50;99.90;;;;;;5075705;28;19919;-73
2023/04/24 12:23:45;;;;;;;;;;;19.30;99.90;;;;;;5075788;28;20311;-73
2023/04/24 12:26:10;;;;;;;;;;;19.40;99.90;;;;;;5093865;28;19908;-74
2023/04/24 12:28:36;;;;;;;;;;;19.20;99.90;;;;;;5093844;28;19912;-73
2023/04/24 12:31:02;;;;;;;;;;;21.10;99.90;;;;;;5094113;28;19908;-74
2023/04/24 12:33:32;;;;;;;;;;;26.50;99.90;;;;;;5093989;28;19914;-75
2023/04/24 12:35:57;;;;;;;;;;;29.00;99.90;;;;;;5093769;28;19908;-74
2023/04/24 12:38:26;;;;;;;;;;;28.80;99.90;;;;;;5093792;28;19908;-73
2023/04/24 12:41:04;;;;;;;;;;;29.40;99.90;;;;;;5075358;28;19940;-74
2023/04/24 12:43:30;;;;;;;;;;;29.20;99.90;;;;;;5094208;28;20368;-73
2023/04/24 12:45:56;;;;;;;;;;;30.70;99.90;;;;;;5093951;28;19912;-74
2023/04/24 12:48:22;;;;;;;;;;;29.60;99.90;;;;;;5093758;28;19909;-74
2023/04/24 12:50:48;;;;;;;;;;;27.70;99.90;;;;;;5093890;28;19950;-73
2023/04/24 12:53:14;;;;;;;;;;;26.20;99.90;;;;;;5093659;28;19915;-73
2023/04/24 12:55:40;;;;;;;;;;;26.10;99.90;;;;;;5093667;28;19914;-74
2023/04/24 12:58:05;;;;;;;;;;;24.80;99.90;;;;;;5093507;28;19909;-73
2023/04/24 13:00:31;;;;;;;;;;;23.10;99.90;;;;;;5093899;28;20003;-73
2023/04/24 13:02:57;;;;;;;;;;;21.40;99.90;;;;;;5093844;28;20362;-74
2023/04/24 13:05:22;;;;;;;;;;;20.20;99.90;;;;;;5093500;28;19908;-72
2023/04/24 13:07:48;;;;;;;;;;;19.70;99.90;;;;;;5093435;28;19908;-73
2023/04/24 13:10:13;;;;;;;;;;;19.90;99.90;;;;;;5093228;28;19908;-73
2023/04/24 13:12:40;;;;;;;;;;;20.50;99.90;;;;;;5093646;28;19908;-72
2023/04/24 13:15:06;;;;;;;;;;;22.30;99.90;;;;;;5093558;28;19908;-74
2023/04/24 13:17:31;;;;;;;;;;;23.60;99.90;;;;;;5093603;28;19957;-73
2023/04/24 13:19:57;;;;;;;;;;;27.50;99.90;;;;;;5093311;28;19912;-74
2023/04/24 13:22:22;;;;;;;;;;;32.40;99.90;;;;;;5093342;28;20376;-73
2023/04/24 13:24:49;;;;;;;;;;;32.80;99.90;;;;;;5093607;28;20388;-74
2023/04/24 13:27:15;;;;;;;;;;;32.00;99.90;;;;;;5093412;28;19908;-74
2023/04/24 13:29:40;;;;;;;;;;;29.90;99.90;;;;;;5093308;28;20451;-73
2023/04/24 13:32:06;;;;;;;;;;;26.60;99.90;;;;;;5093271;28;19945;-73
2023/04/24 13:34:32;;;;;;;;;;;25.80;99.90;;;;;;5093458;28;19915;-74
2023/04/24 13:36:58;;;;;;;;;;;26.80;99.90;;;;;;5094665;28;19915;-75
2023/04/24 13:39:24;;;;;;;;;;;30.40;99.90;;;;;;5096953;28;19908;-74
2023/04/24 13:41:50;;;;;;;;;;;29.80;99.90;;;;;;5096628;28;19926;-73
2023/04/24 13:44:16;;;;;;;;;;;26.30;99.90;;;;;;5096899;28;19908;-74
2023/04/24 13:46:44;;;;;;;;;;;24.10;99.90;;;;;;5097076;28;19915;-72
2023/04/24 13:49:10;;;;;;;;;;;22.50;99.90;;;;;;5096943;28;19908;-73
2023/04/24 13:51:35;;;;;;;;;;;21.00;99.90;;;;;;5096995;28;19957;-73
2023/04/24 13:54:01;;;;;;;;;;;19.90;99.90;;;;;;5096825;28;19922;-72
2023/04/24 13:56:26;;;;;;;;;;;19.20;99.90;;;;;;5096648;28;20279;-72
2023/04/24 13:58:53;;;;;;;;;;;18.60;99.90;;;;;;5096483;28;19908;-73
2023/04/24 14:01:19;;;;;;;;;;;17.50;99.90;;;;;;5096648;28;20049;-72
2023/04/24 14:03:45;;;;;;;;;;;16.80;99.90;;;;;;5096586;28;20356;-73
2023/04/24 14:06:10;;;;;;;;;;;16.60;99.90;;;;;;5096607;28;19918;-74
2023/04/24 14:08:36;;;;;;;;;;;16.80;99.90;;;;;;5096364;28;19912;-72
2023/04/24 14:11:02;;;;;;;;;;;18.80;99.90;;;;;;5096272;28;19916;-73
2023/04/24 14:13:28;;;;;;;;;;;21.60;99.90;;;;;;5096301;28;19931;-73
2023/04/24 14:15:54;;;;;;;;;;;24.20;99.90;;;;;;5096537;28;20376;-74